WZZ463H EPWA-EGGP
Flight info
| Callsign | WZZ463H |
|---|---|
| Flight time | 2h 36m |
| Altitude | 34000 |
| Route | LOLSI DCT DIBLO DCT INDIG DCT SUBIX DCT MIMVA DCT OTBED Y70 POL |
| Aircraft | A321/M-SDE3FGHIRWY/LB1 |
Departure
| Time | 2026-05-04 13:34 |
|---|---|
| Airport | Warsaw Chopin Airport (EPWA) |
Arrival
| Time | 2026-05-04 16:11 |
|---|---|
| Airport | Liverpool John Lennon Airport (EGGP) |
| Time | Latitude | Longitude | Altitude | Speed | Heading |
|---|---|---|---|---|---|
| 2026-05-04 12:56 | 52.17692 | 20.96270 | 335 ft | 0 kts | 242° |
| 2026-05-04 13:27 | 52.17691 | 20.96268 | 339 ft | 1 kts | 242° |
| 2026-05-04 13:28 | 52.17677 | 20.96224 | 335 ft | 7 kts | 242° |
| 2026-05-04 13:28 | 52.17643 | 20.96179 | 338 ft | 6 kts | 176° |
| 2026-05-04 13:28 | 52.17586 | 20.96226 | 337 ft | 13 kts | 153° |
| 2026-05-04 13:28 | 52.17496 | 20.96304 | 336 ft | 15 kts | 152° |
| 2026-05-04 13:29 | 52.17404 | 20.96384 | 337 ft | 15 kts | 152° |
| 2026-05-04 13:29 | 52.17309 | 20.96467 | 335 ft | 16 kts | 152° |
| 2026-05-04 13:29 | 52.17213 | 20.96551 | 338 ft | 16 kts | 152° |
| 2026-05-04 13:29 | 52.17115 | 20.96637 | 337 ft | 16 kts | 152° |
| 2026-05-04 13:30 | 52.17015 | 20.96723 | 337 ft | 16 kts | 152° |
| 2026-05-04 13:30 | 52.16914 | 20.96811 | 337 ft | 17 kts | 152° |
| 2026-05-04 13:30 | 52.16812 | 20.96899 | 337 ft | 17 kts | 152° |
| 2026-05-04 13:30 | 52.16708 | 20.96989 | 336 ft | 17 kts | 152° |
| 2026-05-04 13:31 | 52.16642 | 20.97139 | 337 ft | 17 kts | 112° |
| 2026-05-04 13:31 | 52.16592 | 20.97314 | 335 ft | 15 kts | 115° |
| 2026-05-04 13:31 | 52.16550 | 20.97360 | 335 ft | 1 kts | 171° |
| 2026-05-04 13:31 | 52.16547 | 20.97375 | 336 ft | 5 kts | 109° |
| 2026-05-04 13:32 | 52.16545 | 20.97431 | 335 ft | 10 kts | 95° |
| 2026-05-04 13:32 | 52.16519 | 20.97567 | 335 ft | 13 kts | 116° |
| 2026-05-04 13:32 | 52.16479 | 20.97706 | 334 ft | 14 kts | 115° |
| 2026-05-04 13:32 | 52.16428 | 20.97807 | 335 ft | 10 kts | 189° |
| 2026-05-04 13:33 | 52.16361 | 20.97766 | 338 ft | 11 kts | 205° |
| 2026-05-04 13:33 | 52.16304 | 20.97701 | 334 ft | 10 kts | 257° |
| 2026-05-04 13:33 | 52.16326 | 20.97596 | 337 ft | 11 kts | 295° |
| 2026-05-04 13:33 | 52.16392 | 20.97361 | 335 ft | 52 kts | 294° |
| 2026-05-04 13:34 | 52.16640 | 20.96469 | 350 ft | 118 kts | 295° |
| 2026-05-04 13:34 | 52.17047 | 20.94974 | 418 ft | 163 kts | 289° |
| 2026-05-04 13:34 | 52.17475 | 20.93387 | 1284 ft | 150 kts | 290° |
| 2026-05-04 13:34 | 52.17913 | 20.91793 | 1815 ft | 161 kts | 289° |
| 2026-05-04 13:35 | 52.18250 | 20.89957 | 2036 ft | 178 kts | 271° |
| 2026-05-04 13:35 | 52.18085 | 20.85469 | 2511 ft | 219 kts | 263° |
| 2026-05-04 13:35 | 52.18020 | 20.82836 | 2597 ft | 248 kts | 278° |
| 2026-05-04 13:36 | 52.18368 | 20.80047 | 3241 ft | 252 kts | 281° |
| 2026-05-04 13:36 | 52.18706 | 20.77264 | 4042 ft | 249 kts | 273° |
| 2026-05-04 13:36 | 52.18737 | 20.74408 | 4609 ft | 256 kts | 269° |
| 2026-05-04 13:36 | 52.18699 | 20.71494 | 5317 ft | 257 kts | 266° |
| 2026-05-04 13:37 | 52.18639 | 20.68563 | 5993 ft | 260 kts | 267° |
| 2026-05-04 13:37 | 52.18605 | 20.65599 | 6639 ft | 263 kts | 268° |
| 2026-05-04 13:37 | 52.18586 | 20.62610 | 7298 ft | 264 kts | 268° |
| 2026-05-04 13:37 | 52.18568 | 20.59607 | 7981 ft | 266 kts | 268° |
| 2026-05-04 13:38 | 52.18549 | 20.56579 | 8613 ft | 268 kts | 268° |
| 2026-05-04 13:38 | 52.18526 | 20.53523 | 9243 ft | 271 kts | 267° |
| 2026-05-04 13:38 | 52.18501 | 20.50431 | 9880 ft | 274 kts | 267° |
| 2026-05-04 13:38 | 52.18474 | 20.47274 | 10236 ft | 288 kts | 267° |
| 2026-05-04 13:39 | 52.18441 | 20.43900 | 10375 ft | 308 kts | 267° |
| 2026-05-04 13:39 | 52.18404 | 20.40298 | 10512 ft | 327 kts | 267° |
| 2026-05-04 13:39 | 52.18364 | 20.36514 | 10827 ft | 338 kts | 267° |
| 2026-05-04 13:39 | 52.18323 | 20.32662 | 11390 ft | 342 kts | 267° |
| 2026-05-04 13:40 | 52.18283 | 20.28782 | 12000 ft | 344 kts | 267° |
| 2026-05-04 13:40 | 52.18242 | 20.24877 | 12611 ft | 346 kts | 267° |
| 2026-05-04 13:40 | 52.18199 | 20.20947 | 13219 ft | 348 kts | 266° |
| 2026-05-04 13:40 | 52.18154 | 20.16995 | 13833 ft | 350 kts | 266° |
| 2026-05-04 13:41 | 52.18106 | 20.13025 | 14381 ft | 352 kts | 266° |
| 2026-05-04 13:41 | 52.18055 | 20.09030 | 14924 ft | 354 kts | 266° |
| 2026-05-04 13:41 | 52.18003 | 20.05008 | 15449 ft | 357 kts | 266° |
| 2026-05-04 13:42 | 52.17890 | 19.96889 | 15933 ft | 359 kts | 266° |
| 2026-05-04 13:42 | 52.17831 | 19.92819 | 15947 ft | 359 kts | 266° |
| 2026-05-04 13:42 | 52.17772 | 19.88758 | 15947 ft | 359 kts | 266° |
| 2026-05-04 13:42 | 52.17542 | 19.84729 | 15947 ft | 357 kts | 260° |
| 2026-05-04 13:43 | 52.17187 | 19.80724 | 15950 ft | 357 kts | 260° |
| 2026-05-04 13:43 | 52.16831 | 19.76717 | 15949 ft | 357 kts | 260° |
| 2026-05-04 13:43 | 52.16473 | 19.72714 | 15954 ft | 357 kts | 260° |
| 2026-05-04 13:43 | 52.16109 | 19.68682 | 16374 ft | 361 kts | 260° |
| 2026-05-04 13:44 | 52.15741 | 19.64629 | 16939 ft | 363 kts | 260° |
| 2026-05-04 13:44 | 52.15371 | 19.60545 | 17468 ft | 366 kts | 260° |
| 2026-05-04 13:44 | 52.14999 | 19.56433 | 17993 ft | 368 kts | 260° |
| 2026-05-04 13:44 | 52.14620 | 19.52296 | 18461 ft | 371 kts | 260° |
| 2026-05-04 13:45 | 52.14234 | 19.48121 | 18894 ft | 374 kts | 260° |
| 2026-05-04 13:45 | 52.13849 | 19.43970 | 19321 ft | 378 kts | 260° |
| 2026-05-04 13:45 | 52.13455 | 19.39728 | 19751 ft | 381 kts | 261° |
| 2026-05-04 13:45 | 52.13058 | 19.35446 | 20185 ft | 384 kts | 260° |
| 2026-05-04 13:46 | 52.12660 | 19.31141 | 20603 ft | 387 kts | 261° |
| 2026-05-04 13:46 | 52.12257 | 19.26796 | 20990 ft | 390 kts | 261° |
| 2026-05-04 13:46 | 52.11849 | 19.22417 | 21370 ft | 393 kts | 261° |
| 2026-05-04 13:46 | 52.11437 | 19.18002 | 21758 ft | 396 kts | 261° |
| 2026-05-04 13:47 | 52.11017 | 19.13547 | 22125 ft | 400 kts | 261° |
| 2026-05-04 13:47 | 52.10590 | 19.09068 | 22494 ft | 403 kts | 261° |
| 2026-05-04 13:47 | 52.10155 | 19.04552 | 22848 ft | 406 kts | 261° |
| 2026-05-04 13:47 | 52.09716 | 18.99998 | 23198 ft | 409 kts | 261° |
| 2026-05-04 13:48 | 52.09275 | 18.95404 | 23545 ft | 412 kts | 261° |
| 2026-05-04 13:48 | 52.08832 | 18.90790 | 23847 ft | 414 kts | 261° |
| 2026-05-04 13:48 | 52.08384 | 18.86158 | 24175 ft | 416 kts | 261° |
| 2026-05-04 13:48 | 52.07933 | 18.81509 | 24512 ft | 417 kts | 261° |
| 2026-05-04 13:49 | 52.07479 | 18.76842 | 24838 ft | 419 kts | 261° |
| 2026-05-04 13:49 | 52.07020 | 18.72165 | 25168 ft | 420 kts | 260° |
| 2026-05-04 13:49 | 52.06557 | 18.67475 | 25493 ft | 421 kts | 260° |
| 2026-05-04 13:49 | 52.06089 | 18.62763 | 25819 ft | 423 kts | 260° |
| 2026-05-04 13:50 | 52.05616 | 18.58045 | 26149 ft | 424 kts | 260° |
| 2026-05-04 13:50 | 52.05137 | 18.53307 | 26455 ft | 425 kts | 260° |
| 2026-05-04 13:50 | 52.04657 | 18.48563 | 26760 ft | 427 kts | 260° |
| 2026-05-04 13:50 | 52.04177 | 18.43801 | 27059 ft | 428 kts | 260° |
| 2026-05-04 13:51 | 52.03698 | 18.39023 | 27389 ft | 429 kts | 260° |
| 2026-05-04 13:51 | 52.03217 | 18.34238 | 27691 ft | 430 kts | 260° |
| 2026-05-04 13:51 | 52.02727 | 18.29441 | 27990 ft | 431 kts | 260° |
| 2026-05-04 13:51 | 52.02231 | 18.24630 | 28287 ft | 433 kts | 260° |
| 2026-05-04 13:52 | 52.01227 | 18.14969 | 28869 ft | 436 kts | 260° |
| 2026-05-04 13:52 | 52.00720 | 18.10121 | 29230 ft | 435 kts | 260° |
| 2026-05-04 13:52 | 52.00218 | 18.05291 | 29648 ft | 433 kts | 261° |
| 2026-05-04 13:53 | 51.99994 | 18.00421 | 30050 ft | 433 kts | 270° |
| 2026-05-04 13:53 | 52.00253 | 17.95564 | 30387 ft | 432 kts | 278° |
| 2026-05-04 13:53 | 52.00858 | 17.90791 | 30717 ft | 432 kts | 280° |
| 2026-05-04 13:54 | 52.02063 | 17.81300 | 31445 ft | 427 kts | 279° |
| 2026-05-04 13:54 | 52.02651 | 17.76577 | 31801 ft | 425 kts | 279° |
| 2026-05-04 13:54 | 52.03816 | 17.67197 | 32473 ft | 422 kts | 279° |
| 2026-05-04 13:55 | 52.04395 | 17.62528 | 32804 ft | 421 kts | 279° |
| 2026-05-04 13:55 | 52.05538 | 17.53299 | 33441 ft | 418 kts | 279° |
| 2026-05-04 13:55 | 52.06111 | 17.48671 | 33758 ft | 417 kts | 279° |
| 2026-05-04 13:56 | 52.06681 | 17.44058 | 33924 ft | 416 kts | 279° |
| 2026-05-04 13:56 | 52.07245 | 17.39449 | 33955 ft | 414 kts | 279° |
| 2026-05-04 13:57 | 52.08894 | 17.25807 | 33945 ft | 409 kts | 279° |
| 2026-05-04 13:58 | 52.11073 | 17.07663 | 33947 ft | 409 kts | 279° |
| 2026-05-04 13:58 | 52.12698 | 16.94049 | 33959 ft | 409 kts | 278° |
| 2026-05-04 13:59 | 52.13767 | 16.84954 | 33962 ft | 410 kts | 278° |
| 2026-05-04 14:00 | 52.15356 | 16.71272 | 33954 ft | 410 kts | 278° |
| 2026-05-04 14:00 | 52.16929 | 16.57557 | 33954 ft | 411 kts | 278° |
| 2026-05-04 14:01 | 52.17977 | 16.48411 | 33954 ft | 411 kts | 278° |
| 2026-05-04 14:02 | 52.19538 | 16.34681 | 33966 ft | 411 kts | 278° |
| 2026-05-04 14:02 | 52.20564 | 16.25528 | 33971 ft | 410 kts | 278° |
| 2026-05-04 14:03 | 52.21578 | 16.16376 | 33967 ft | 410 kts | 278° |
| 2026-05-04 14:03 | 52.22590 | 16.07223 | 33959 ft | 410 kts | 278° |
| 2026-05-04 14:04 | 52.24100 | 15.93492 | 33990 ft | 410 kts | 278° |
| 2026-05-04 14:04 | 52.25092 | 15.84346 | 33988 ft | 409 kts | 277° |
| 2026-05-04 14:05 | 52.26562 | 15.70630 | 33988 ft | 409 kts | 277° |
| 2026-05-04 14:06 | 52.27538 | 15.61491 | 33981 ft | 409 kts | 277° |
| 2026-05-04 14:06 | 52.28508 | 15.52344 | 33976 ft | 409 kts | 277° |
| 2026-05-04 14:07 | 52.29464 | 15.43203 | 33986 ft | 408 kts | 277° |
| 2026-05-04 14:07 | 52.30408 | 15.34071 | 33977 ft | 407 kts | 277° |
| 2026-05-04 14:08 | 52.31348 | 15.24958 | 33965 ft | 407 kts | 277° |
| 2026-05-04 14:08 | 52.32286 | 15.15845 | 33963 ft | 406 kts | 277° |
| 2026-05-04 14:09 | 52.33671 | 15.02244 | 33964 ft | 406 kts | 277° |
| 2026-05-04 14:10 | 52.35035 | 14.88594 | 33973 ft | 405 kts | 276° |
| 2026-05-04 14:10 | 52.35930 | 14.79497 | 33970 ft | 405 kts | 276° |
| 2026-05-04 14:11 | 52.36825 | 14.70414 | 33968 ft | 404 kts | 276° |
| 2026-05-04 14:11 | 52.38165 | 14.56782 | 33966 ft | 405 kts | 277° |
| 2026-05-04 14:12 | 52.39162 | 14.47708 | 33966 ft | 405 kts | 277° |
| 2026-05-04 14:13 | 52.40715 | 14.34115 | 33969 ft | 405 kts | 277° |
| 2026-05-04 14:13 | 52.41723 | 14.25051 | 33967 ft | 404 kts | 277° |
| 2026-05-04 14:14 | 52.42711 | 14.15994 | 33965 ft | 404 kts | 277° |
| 2026-05-04 14:14 | 52.44185 | 14.02399 | 33987 ft | 404 kts | 277° |
| 2026-05-04 14:15 | 52.46128 | 13.84330 | 33989 ft | 403 kts | 276° |
| 2026-05-04 14:16 | 52.47570 | 13.70750 | 33990 ft | 403 kts | 276° |
| 2026-05-04 14:17 | 52.48998 | 13.57163 | 33993 ft | 403 kts | 276° |
| 2026-05-04 14:18 | 52.50397 | 13.43584 | 33994 ft | 402 kts | 276° |
| 2026-05-04 14:19 | 52.52085 | 13.26998 | 33987 ft | 402 kts | 276° |
| 2026-05-04 14:19 | 52.53006 | 13.17936 | 33984 ft | 402 kts | 276° |
| 2026-05-04 14:20 | 52.53915 | 13.08874 | 33974 ft | 402 kts | 276° |
| 2026-05-04 14:20 | 52.54814 | 12.99823 | 33989 ft | 401 kts | 276° |
| 2026-05-04 14:21 | 52.56150 | 12.86264 | 33987 ft | 401 kts | 276° |
| 2026-05-04 14:21 | 52.57027 | 12.77225 | 33983 ft | 400 kts | 276° |
| 2026-05-04 14:22 | 52.57895 | 12.68254 | 33987 ft | 400 kts | 276° |
| 2026-05-04 14:22 | 52.58762 | 12.59215 | 33986 ft | 400 kts | 276° |
| 2026-05-04 14:23 | 52.60044 | 12.45683 | 33997 ft | 399 kts | 275° |
| 2026-05-04 14:24 | 52.60884 | 12.36680 | 33996 ft | 398 kts | 275° |
| 2026-05-04 14:24 | 52.61718 | 12.27690 | 33999 ft | 397 kts | 275° |
| 2026-05-04 14:25 | 52.62545 | 12.18701 | 33993 ft | 397 kts | 275° |
| 2026-05-04 14:25 | 52.63770 | 12.05222 | 33978 ft | 397 kts | 275° |
| 2026-05-04 14:26 | 52.64592 | 11.96227 | 33978 ft | 398 kts | 275° |
| 2026-05-04 14:26 | 52.65398 | 11.87275 | 33979 ft | 398 kts | 275° |
| 2026-05-04 14:27 | 52.66200 | 11.78250 | 33975 ft | 398 kts | 275° |
| 2026-05-04 14:27 | 52.66992 | 11.69226 | 33974 ft | 398 kts | 275° |
| 2026-05-04 14:28 | 52.67774 | 11.60202 | 33988 ft | 398 kts | 275° |
| 2026-05-04 14:28 | 52.68551 | 11.51161 | 33990 ft | 398 kts | 275° |
| 2026-05-04 14:29 | 52.70084 | 11.33094 | 33983 ft | 398 kts | 275° |
| 2026-05-04 14:30 | 52.70843 | 11.24064 | 33979 ft | 398 kts | 274° |
| 2026-05-04 14:31 | 52.71968 | 11.10510 | 33996 ft | 398 kts | 274° |
| 2026-05-04 14:32 | 52.73443 | 10.92436 | 33986 ft | 398 kts | 274° |
| 2026-05-04 14:32 | 52.74169 | 10.83383 | 33981 ft | 398 kts | 274° |
| 2026-05-04 14:33 | 52.74888 | 10.74334 | 33981 ft | 398 kts | 274° |
| 2026-05-04 14:33 | 52.75606 | 10.65275 | 33973 ft | 398 kts | 274° |
| 2026-05-04 14:34 | 52.76313 | 10.56282 | 33993 ft | 398 kts | 274° |
| 2026-05-04 14:34 | 52.77014 | 10.47216 | 33984 ft | 398 kts | 273° |
| 2026-05-04 14:35 | 52.77698 | 10.38147 | 33983 ft | 398 kts | 273° |
| 2026-05-04 14:35 | 52.78382 | 10.29077 | 33989 ft | 398 kts | 273° |
| 2026-05-04 14:36 | 52.79058 | 10.20004 | 33991 ft | 398 kts | 273° |
| 2026-05-04 14:36 | 52.79730 | 10.10942 | 34000 ft | 398 kts | 273° |
| 2026-05-04 14:37 | 52.80397 | 10.01868 | 33994 ft | 398 kts | 273° |
| 2026-05-04 14:37 | 52.81058 | 9.92791 | 33986 ft | 398 kts | 273° |
| 2026-05-04 14:38 | 52.81713 | 9.83711 | 33984 ft | 398 kts | 273° |
| 2026-05-04 14:38 | 52.82360 | 9.74638 | 33975 ft | 398 kts | 272° |
| 2026-05-04 14:39 | 52.82991 | 9.65558 | 33972 ft | 398 kts | 272° |
| 2026-05-04 14:39 | 52.83618 | 9.56470 | 33968 ft | 397 kts | 272° |
| 2026-05-04 14:40 | 52.84551 | 9.42900 | 33976 ft | 398 kts | 272° |
| 2026-05-04 14:40 | 52.85162 | 9.33745 | 33975 ft | 398 kts | 272° |
| 2026-05-04 14:41 | 52.85765 | 9.24711 | 33982 ft | 398 kts | 272° |
| 2026-05-04 14:42 | 52.86961 | 9.06452 | 34003 ft | 398 kts | 272° |
| 2026-05-04 14:42 | 52.87541 | 8.97393 | 33998 ft | 399 kts | 272° |
| 2026-05-04 14:43 | 52.88122 | 8.88248 | 34004 ft | 400 kts | 272° |
| 2026-05-04 14:43 | 52.88699 | 8.79090 | 34006 ft | 400 kts | 272° |
| 2026-05-04 14:44 | 52.89268 | 8.69924 | 34011 ft | 400 kts | 272° |
| 2026-05-04 14:44 | 52.89828 | 8.60758 | 34023 ft | 400 kts | 272° |
| 2026-05-04 14:45 | 52.90383 | 8.51581 | 34013 ft | 400 kts | 272° |
| 2026-05-04 14:45 | 52.90928 | 8.42391 | 34005 ft | 401 kts | 272° |
| 2026-05-04 14:46 | 52.91465 | 8.33193 | 34006 ft | 401 kts | 271° |
| 2026-05-04 14:46 | 52.91999 | 8.23993 | 34008 ft | 401 kts | 271° |
| 2026-05-04 14:47 | 52.92527 | 8.14796 | 34006 ft | 401 kts | 271° |
| 2026-05-04 14:47 | 52.93051 | 8.05588 | 34013 ft | 401 kts | 271° |
| 2026-05-04 14:48 | 52.93564 | 7.96377 | 34009 ft | 401 kts | 271° |
| 2026-05-04 14:48 | 52.94066 | 7.87155 | 34005 ft | 402 kts | 271° |
| 2026-05-04 14:49 | 52.94567 | 7.77936 | 34006 ft | 401 kts | 271° |
| 2026-05-04 14:49 | 52.95053 | 7.68721 | 34005 ft | 401 kts | 271° |
| 2026-05-04 14:50 | 52.95537 | 7.59504 | 34024 ft | 401 kts | 271° |
| 2026-05-04 14:50 | 52.96013 | 7.50280 | 34022 ft | 402 kts | 271° |
| 2026-05-04 14:51 | 52.96481 | 7.41113 | 34005 ft | 401 kts | 271° |
| 2026-05-04 14:51 | 52.96946 | 7.31900 | 34005 ft | 401 kts | 271° |
| 2026-05-04 14:52 | 52.97403 | 7.22679 | 34015 ft | 401 kts | 271° |
| 2026-05-04 14:52 | 52.97845 | 7.13436 | 34016 ft | 402 kts | 271° |
| 2026-05-04 14:53 | 52.98287 | 7.04206 | 34025 ft | 401 kts | 271° |
| 2026-05-04 14:53 | 52.98728 | 6.94961 | 34020 ft | 402 kts | 271° |
| 2026-05-04 14:54 | 52.99157 | 6.85706 | 34023 ft | 402 kts | 271° |
| 2026-05-04 14:54 | 52.99574 | 6.76444 | 34022 ft | 402 kts | 271° |
| 2026-05-04 14:55 | 52.99986 | 6.67188 | 34020 ft | 402 kts | 271° |
| 2026-05-04 14:55 | 53.00388 | 6.57929 | 34031 ft | 402 kts | 271° |
| 2026-05-04 14:56 | 53.00785 | 6.48656 | 34035 ft | 403 kts | 271° |
| 2026-05-04 14:56 | 53.01176 | 6.39376 | 34033 ft | 403 kts | 271° |
| 2026-05-04 14:57 | 53.01564 | 6.30090 | 34029 ft | 403 kts | 271° |
| 2026-05-04 14:57 | 53.01944 | 6.20802 | 34030 ft | 403 kts | 271° |
| 2026-05-04 14:58 | 53.02316 | 6.11515 | 34032 ft | 403 kts | 270° |
| 2026-05-04 14:58 | 53.02616 | 6.03798 | 34037 ft | 403 kts | 270° |
| 2026-05-04 14:59 | 53.03033 | 5.92922 | 34039 ft | 404 kts | 270° |
| 2026-05-04 15:00 | 53.03557 | 5.78942 | 34030 ft | 404 kts | 270° |
| 2026-05-04 15:00 | 53.03899 | 5.69614 | 34034 ft | 404 kts | 270° |
| 2026-05-04 15:01 | 53.04392 | 5.55624 | 34026 ft | 405 kts | 270° |
| 2026-05-04 15:01 | 53.04715 | 5.46276 | 34014 ft | 406 kts | 270° |
| 2026-05-04 15:02 | 53.05026 | 5.36899 | 34016 ft | 406 kts | 270° |
| 2026-05-04 15:02 | 53.05333 | 5.27523 | 34021 ft | 406 kts | 270° |
| 2026-05-04 15:03 | 53.05636 | 5.18136 | 34021 ft | 407 kts | 270° |
| 2026-05-04 15:03 | 53.05930 | 5.08736 | 34029 ft | 407 kts | 270° |
| 2026-05-04 15:04 | 53.06219 | 4.99313 | 34032 ft | 409 kts | 269° |
| 2026-05-04 15:04 | 53.06504 | 4.89842 | 34028 ft | 411 kts | 269° |
| 2026-05-04 15:05 | 53.06781 | 4.80338 | 34034 ft | 412 kts | 269° |
| 2026-05-04 15:05 | 53.07047 | 4.70815 | 34038 ft | 413 kts | 269° |
| 2026-05-04 15:06 | 53.07301 | 4.61278 | 34042 ft | 413 kts | 269° |
| 2026-05-04 15:07 | 53.07637 | 4.48582 | 34041 ft | 413 kts | 269° |
| 2026-05-04 15:07 | 53.07880 | 4.39045 | 34042 ft | 413 kts | 269° |
| 2026-05-04 15:08 | 53.08111 | 4.29495 | 34045 ft | 413 kts | 269° |
| 2026-05-04 15:08 | 53.08339 | 4.19952 | 34040 ft | 413 kts | 269° |
| 2026-05-04 15:09 | 53.08558 | 4.10419 | 34042 ft | 412 kts | 269° |
| 2026-05-04 15:09 | 53.08769 | 4.00885 | 34023 ft | 413 kts | 269° |
| 2026-05-04 15:10 | 53.09068 | 3.86522 | 34017 ft | 415 kts | 269° |
| 2026-05-04 15:11 | 53.09364 | 3.72089 | 34026 ft | 417 kts | 269° |
| 2026-05-04 15:11 | 53.09550 | 3.62448 | 34045 ft | 417 kts | 269° |
| 2026-05-04 15:12 | 53.09726 | 3.52798 | 34056 ft | 418 kts | 269° |
| 2026-05-04 15:12 | 53.09895 | 3.43124 | 34036 ft | 419 kts | 269° |
| 2026-05-04 15:13 | 53.10050 | 3.33430 | 34031 ft | 420 kts | 269° |
| 2026-05-04 15:13 | 53.10564 | 3.23803 | 34033 ft | 421 kts | 274° |
| 2026-05-04 15:14 | 53.11251 | 3.14110 | 34039 ft | 422 kts | 274° |
| 2026-05-04 15:14 | 53.11919 | 3.04415 | 34046 ft | 422 kts | 274° |
| 2026-05-04 15:15 | 53.12579 | 2.94690 | 34029 ft | 424 kts | 274° |
| 2026-05-04 15:15 | 53.13239 | 2.84930 | 34028 ft | 425 kts | 274° |
| 2026-05-04 15:16 | 53.14215 | 2.70228 | 34030 ft | 426 kts | 274° |
| 2026-05-04 15:17 | 53.15179 | 2.55485 | 34046 ft | 427 kts | 274° |
| 2026-05-04 15:17 | 53.16128 | 2.40683 | 34029 ft | 429 kts | 274° |
| 2026-05-04 15:18 | 53.16757 | 2.30776 | 34029 ft | 430 kts | 274° |
| 2026-05-04 15:19 | 53.17674 | 2.15871 | 34050 ft | 432 kts | 274° |
| 2026-05-04 15:19 | 53.18578 | 2.00926 | 34052 ft | 432 kts | 274° |
| 2026-05-04 15:20 | 53.19179 | 1.90927 | 34034 ft | 434 kts | 274° |
| 2026-05-04 15:20 | 53.19769 | 1.80962 | 34036 ft | 435 kts | 274° |
| 2026-05-04 15:21 | 53.20349 | 1.70907 | 34050 ft | 436 kts | 274° |
| 2026-05-04 15:22 | 53.21210 | 1.55787 | 34051 ft | 437 kts | 274° |
| 2026-05-04 15:22 | 53.22058 | 1.40624 | 34040 ft | 439 kts | 274° |
| 2026-05-04 15:23 | 53.22618 | 1.30454 | 34041 ft | 441 kts | 274° |
| 2026-05-04 15:23 | 53.23166 | 1.20247 | 34046 ft | 442 kts | 274° |
| 2026-05-04 15:24 | 53.24233 | 0.99777 | 34057 ft | 443 kts | 274° |
| 2026-05-04 15:25 | 53.24760 | 0.89489 | 34036 ft | 446 kts | 274° |
| 2026-05-04 15:26 | 53.25536 | 0.73946 | 34034 ft | 450 kts | 275° |
| 2026-05-04 15:26 | 53.26298 | 0.58261 | 34052 ft | 453 kts | 275° |
| 2026-05-04 15:27 | 53.27041 | 0.42506 | 34033 ft | 455 kts | 275° |
| 2026-05-04 15:28 | 53.27530 | 0.31966 | 33428 ft | 456 kts | 275° |
| 2026-05-04 15:28 | 53.27772 | 0.26678 | 32684 ft | 458 kts | 275° |
| 2026-05-04 15:28 | 53.28244 | 0.16134 | 31640 ft | 452 kts | 275° |
| 2026-05-04 15:29 | 53.28470 | 0.10922 | 31143 ft | 448 kts | 275° |
| 2026-05-04 15:30 | 53.32172 | -0.08312 | 28986 ft | 432 kts | 298° |
| 2026-05-04 15:30 | 53.36086 | -0.21692 | 27455 ft | 421 kts | 297° |
| 2026-05-04 15:31 | 53.38624 | -0.30445 | 26463 ft | 415 kts | 297° |
| 2026-05-04 15:31 | 53.39876 | -0.34781 | 26004 ft | 412 kts | 297° |
| 2026-05-04 15:32 | 53.43577 | -0.47605 | 24684 ft | 403 kts | 296° |
| 2026-05-04 15:32 | 53.46001 | -0.56011 | 23898 ft | 398 kts | 296° |
| 2026-05-04 15:33 | 53.48385 | -0.64324 | 23018 ft | 392 kts | 296° |
| 2026-05-04 15:34 | 53.51860 | -0.76573 | 21733 ft | 382 kts | 295° |
| 2026-05-04 15:34 | 53.52995 | -0.80591 | 21295 ft | 379 kts | 295° |
| 2026-05-04 15:34 | 53.55222 | -0.88470 | 20465 ft | 372 kts | 295° |
| 2026-05-04 15:35 | 53.57429 | -0.96291 | 19719 ft | 368 kts | 295° |
| 2026-05-04 15:35 | 53.58520 | -1.00172 | 19358 ft | 365 kts | 295° |
| 2026-05-04 15:35 | 53.59601 | -1.04021 | 18998 ft | 363 kts | 295° |
| 2026-05-04 15:36 | 53.61317 | -1.11929 | 18273 ft | 357 kts | 282° |
| 2026-05-04 15:36 | 53.61867 | -1.15998 | 17869 ft | 355 kts | 282° |
| 2026-05-04 15:36 | 53.62414 | -1.20032 | 17462 ft | 353 kts | 282° |
| 2026-05-04 15:37 | 53.62960 | -1.24045 | 17066 ft | 350 kts | 282° |
| 2026-05-04 15:37 | 53.63502 | -1.28029 | 16678 ft | 348 kts | 282° |
| 2026-05-04 15:37 | 53.64041 | -1.31986 | 16285 ft | 345 kts | 282° |
| 2026-05-04 15:37 | 53.64575 | -1.35920 | 15902 ft | 343 kts | 282° |
| 2026-05-04 15:38 | 53.65105 | -1.39827 | 15526 ft | 341 kts | 282° |
| 2026-05-04 15:38 | 53.65630 | -1.43712 | 15152 ft | 339 kts | 282° |
| 2026-05-04 15:38 | 53.66148 | -1.47568 | 14783 ft | 337 kts | 282° |
| 2026-05-04 15:38 | 53.66663 | -1.51410 | 14417 ft | 335 kts | 282° |
| 2026-05-04 15:39 | 53.67173 | -1.55221 | 14057 ft | 332 kts | 282° |
| 2026-05-04 15:39 | 53.67681 | -1.59017 | 13681 ft | 331 kts | 282° |
| 2026-05-04 15:39 | 53.68680 | -1.66559 | 12882 ft | 327 kts | 282° |
| 2026-05-04 15:40 | 53.69173 | -1.70294 | 12486 ft | 326 kts | 282° |
| 2026-05-04 15:40 | 53.69664 | -1.74014 | 12107 ft | 324 kts | 282° |
| 2026-05-04 15:40 | 53.70151 | -1.77710 | 11730 ft | 322 kts | 282° |
| 2026-05-04 15:40 | 53.70637 | -1.81392 | 11358 ft | 320 kts | 282° |
| 2026-05-04 15:41 | 53.71114 | -1.85048 | 11079 ft | 317 kts | 282° |
| 2026-05-04 15:41 | 53.71580 | -1.88642 | 11053 ft | 319 kts | 282° |
| 2026-05-04 15:41 | 53.72052 | -1.92297 | 11061 ft | 319 kts | 282° |
| 2026-05-04 15:41 | 53.72527 | -1.95956 | 11061 ft | 319 kts | 282° |
| 2026-05-04 15:42 | 53.73004 | -1.99587 | 10714 ft | 316 kts | 282° |
| 2026-05-04 15:42 | 53.73483 | -2.03184 | 10414 ft | 309 kts | 282° |
| 2026-05-04 15:42 | 53.73944 | -2.06654 | 10286 ft | 297 kts | 282° |
| 2026-05-04 15:42 | 53.74389 | -2.09998 | 10154 ft | 286 kts | 282° |
| 2026-05-04 15:43 | 53.74818 | -2.13232 | 9791 ft | 281 kts | 282° |
| 2026-05-04 15:43 | 53.75240 | -2.16445 | 9452 ft | 279 kts | 282° |
| 2026-05-04 15:43 | 53.75659 | -2.19634 | 9103 ft | 277 kts | 282° |
| 2026-05-04 15:43 | 53.76072 | -2.22804 | 8738 ft | 275 kts | 282° |
| 2026-05-04 15:44 | 53.76482 | -2.25957 | 8396 ft | 274 kts | 282° |
| 2026-05-04 15:44 | 53.76887 | -2.29086 | 8048 ft | 272 kts | 282° |
| 2026-05-04 15:44 | 53.77289 | -2.32213 | 7703 ft | 271 kts | 282° |
| 2026-05-04 15:44 | 53.77549 | -2.35346 | 7383 ft | 268 kts | 266° |
| 2026-05-04 15:45 | 53.77024 | -2.38286 | 7113 ft | 266 kts | 238° |
| 2026-05-04 15:45 | 53.75883 | -2.40826 | 7061 ft | 270 kts | 232° |
| 2026-05-04 15:45 | 53.74658 | -2.43249 | 7066 ft | 272 kts | 231° |
| 2026-05-04 15:45 | 53.73422 | -2.45673 | 7065 ft | 272 kts | 231° |
| 2026-05-04 15:46 | 53.72184 | -2.48086 | 7064 ft | 272 kts | 230° |
| 2026-05-04 15:46 | 53.70963 | -2.50473 | 7062 ft | 273 kts | 230° |
| 2026-05-04 15:46 | 53.69730 | -2.52914 | 7066 ft | 274 kts | 230° |
| 2026-05-04 15:46 | 53.68496 | -2.55364 | 7068 ft | 274 kts | 230° |
| 2026-05-04 15:47 | 53.67264 | -2.57812 | 7064 ft | 274 kts | 230° |
| 2026-05-04 15:47 | 53.66031 | -2.60259 | 7062 ft | 274 kts | 230° |
| 2026-05-04 15:47 | 53.64792 | -2.62700 | 7065 ft | 274 kts | 230° |
| 2026-05-04 15:47 | 53.63550 | -2.65126 | 7064 ft | 274 kts | 230° |
| 2026-05-04 15:48 | 53.62316 | -2.67560 | 7067 ft | 274 kts | 231° |
| 2026-05-04 15:48 | 53.61083 | -2.70017 | 7066 ft | 274 kts | 230° |
| 2026-05-04 15:48 | 53.58631 | -2.74923 | 7069 ft | 273 kts | 231° |
| 2026-05-04 15:49 | 53.57406 | -2.77370 | 7071 ft | 274 kts | 231° |
| 2026-05-04 15:49 | 53.56177 | -2.79821 | 7069 ft | 273 kts | 231° |
| 2026-05-04 15:49 | 53.54949 | -2.82264 | 7070 ft | 274 kts | 230° |
| 2026-05-04 15:49 | 53.53721 | -2.84708 | 7071 ft | 273 kts | 231° |
| 2026-05-04 15:50 | 53.52494 | -2.87154 | 7069 ft | 274 kts | 231° |
| 2026-05-04 15:50 | 53.51269 | -2.89598 | 7070 ft | 274 kts | 230° |
| 2026-05-04 15:50 | 53.50039 | -2.92042 | 7071 ft | 274 kts | 230° |
| 2026-05-04 15:50 | 53.48807 | -2.94485 | 7070 ft | 274 kts | 231° |
| 2026-05-04 15:51 | 53.47574 | -2.96928 | 7072 ft | 274 kts | 231° |
| 2026-05-04 15:51 | 53.46341 | -2.99369 | 7071 ft | 274 kts | 230° |
| 2026-05-04 15:51 | 53.45107 | -3.01805 | 7070 ft | 274 kts | 231° |
| 2026-05-04 15:51 | 53.43873 | -3.04233 | 7070 ft | 274 kts | 230° |
| 2026-05-04 15:52 | 53.42637 | -3.06666 | 7081 ft | 274 kts | 230° |
| 2026-05-04 15:52 | 53.41406 | -3.09107 | 7077 ft | 274 kts | 233° |
| 2026-05-04 15:52 | 53.40398 | -3.11792 | 7078 ft | 272 kts | 245° |
| 2026-05-04 15:52 | 53.39749 | -3.14752 | 7080 ft | 270 kts | 257° |
| 2026-05-04 15:53 | 53.39476 | -3.17861 | 7080 ft | 270 kts | 268° |
| 2026-05-04 15:53 | 53.39559 | -3.21013 | 7079 ft | 272 kts | 275° |
| 2026-05-04 15:53 | 53.39714 | -3.24150 | 7077 ft | 270 kts | 275° |
| 2026-05-04 15:53 | 53.39861 | -3.27293 | 7076 ft | 267 kts | 275° |
| 2026-05-04 15:54 | 53.39998 | -3.30307 | 7068 ft | 252 kts | 274° |
| 2026-05-04 15:54 | 53.40124 | -3.33178 | 7070 ft | 245 kts | 274° |
| 2026-05-04 15:54 | 53.40248 | -3.36012 | 7071 ft | 242 kts | 274° |
| 2026-05-04 15:54 | 53.40372 | -3.38825 | 7072 ft | 242 kts | 274° |
| 2026-05-04 15:55 | 53.40454 | -3.40688 | 7071 ft | 242 kts | 274° |
| 2026-05-04 15:55 | 53.40620 | -3.44428 | 7070 ft | 243 kts | 276° |
| 2026-05-04 15:55 | 53.41089 | -3.47108 | 7068 ft | 241 kts | 301° |
| 2026-05-04 15:55 | 53.42224 | -3.49153 | 7070 ft | 243 kts | 327° |
| 2026-05-04 15:56 | 53.43798 | -3.50142 | 7070 ft | 245 kts | 353° |
| 2026-05-04 15:56 | 53.45486 | -3.49833 | 7071 ft | 247 kts | 21° |
| 2026-05-04 15:56 | 53.46505 | -3.48902 | 7070 ft | 249 kts | 39° |
| 2026-05-04 15:56 | 53.47583 | -3.46646 | 7071 ft | 251 kts | 66° |
| 2026-05-04 15:57 | 53.47923 | -3.43788 | 7069 ft | 252 kts | 94° |
| 2026-05-04 15:57 | 53.47447 | -3.40991 | 7073 ft | 252 kts | 118° |
| 2026-05-04 15:57 | 53.46635 | -3.38369 | 7071 ft | 253 kts | 118° |
| 2026-05-04 15:57 | 53.45814 | -3.35745 | 7071 ft | 255 kts | 118° |
| 2026-05-04 15:58 | 53.44994 | -3.33116 | 7068 ft | 254 kts | 118° |
| 2026-05-04 15:58 | 53.44179 | -3.30490 | 7068 ft | 254 kts | 118° |
| 2026-05-04 15:58 | 53.43438 | -3.27806 | 7069 ft | 254 kts | 108° |
| 2026-05-04 15:58 | 53.42945 | -3.24958 | 6837 ft | 253 kts | 105° |
| 2026-05-04 15:59 | 53.42467 | -3.22127 | 6631 ft | 251 kts | 105° |
| 2026-05-04 15:59 | 53.41993 | -3.19310 | 6434 ft | 252 kts | 105° |
| 2026-05-04 15:59 | 53.41517 | -3.16493 | 6225 ft | 249 kts | 105° |
| 2026-05-04 15:59 | 53.41043 | -3.13706 | 6029 ft | 248 kts | 105° |
| 2026-05-04 16:00 | 53.40570 | -3.10939 | 5830 ft | 247 kts | 105° |
| 2026-05-04 16:00 | 53.40099 | -3.08173 | 5641 ft | 246 kts | 105° |
| 2026-05-04 16:00 | 53.39631 | -3.05425 | 5449 ft | 245 kts | 105° |
| 2026-05-04 16:00 | 53.39164 | -3.02690 | 5257 ft | 243 kts | 105° |
| 2026-05-04 16:01 | 53.38697 | -2.99969 | 5068 ft | 242 kts | 105° |
| 2026-05-04 16:01 | 53.38235 | -2.97270 | 4834 ft | 241 kts | 105° |
| 2026-05-04 16:01 | 53.37775 | -2.94585 | 4616 ft | 239 kts | 105° |
| 2026-05-04 16:01 | 53.37315 | -2.91909 | 4412 ft | 239 kts | 106° |
| 2026-05-04 16:02 | 53.36857 | -2.89244 | 4231 ft | 238 kts | 105° |
| 2026-05-04 16:02 | 53.36406 | -2.86621 | 4047 ft | 237 kts | 106° |
| 2026-05-04 16:02 | 53.35489 | -2.81345 | 3677 ft | 235 kts | 106° |
| 2026-05-04 16:03 | 53.35034 | -2.78719 | 3521 ft | 234 kts | 106° |
| 2026-05-04 16:03 | 53.34577 | -2.76096 | 3424 ft | 235 kts | 106° |
| 2026-05-04 16:03 | 53.34202 | -2.73448 | 3320 ft | 234 kts | 92° |
| 2026-05-04 16:03 | 53.34466 | -2.70791 | 3178 ft | 233 kts | 65° |
| 2026-05-04 16:04 | 53.35191 | -2.68370 | 2995 ft | 233 kts | 63° |
| 2026-05-04 16:04 | 53.36653 | -2.63541 | 2645 ft | 232 kts | 62° |
| 2026-05-04 16:04 | 53.37378 | -2.61140 | 2544 ft | 226 kts | 62° |
| 2026-05-04 16:05 | 53.38074 | -2.58835 | 2486 ft | 218 kts | 62° |
| 2026-05-04 16:05 | 53.38654 | -2.56512 | 2421 ft | 216 kts | 81° |
| 2026-05-04 16:05 | 53.37296 | -2.52474 | 2320 ft | 215 kts | 161° |
| 2026-05-04 16:06 | 53.35846 | -2.52523 | 2268 ft | 213 kts | 206° |
| 2026-05-04 16:06 | 53.34544 | -2.58269 | 2138 ft | 210 kts | 267° |
| 2026-05-04 16:07 | 53.34411 | -2.61522 | 2014 ft | 210 kts | 267° |
| 2026-05-04 16:07 | 53.34133 | -2.67837 | 1891 ft | 163 kts | 267° |
| 2026-05-04 16:08 | 53.34050 | -2.69704 | 1725 ft | 159 kts | 267° |
| 2026-05-04 16:08 | 53.33810 | -2.75057 | 1095 ft | 148 kts | 268° |
| 2026-05-04 16:09 | 53.33647 | -2.78393 | 704 ft | 143 kts | 269° |
| 2026-05-04 16:09 | 53.33508 | -2.81655 | 340 ft | 140 kts | 266° |
| 2026-05-04 16:10 | 53.33377 | -2.84726 | 94 ft | 98 kts | 266° |
| 2026-05-04 16:11 | 53.33336 | -2.85516 | 95 ft | 11 kts | 265° |
| 2026-05-04 16:11 | 53.33329 | -2.85673 | 94 ft | 16 kts | 266° |
| 2026-05-04 16:12 | 53.33324 | -2.86405 | 96 ft | 16 kts | 316° |
| 2026-05-04 16:12 | 53.33556 | -2.86296 | 95 ft | 12 kts | 26° |
| 2026-05-04 16:13 | 53.33589 | -2.86022 | 94 ft | 13 kts | 89° |
| 2026-05-04 16:13 | 53.33600 | -2.85730 | 97 ft | 5 kts | 85° |
| 2026-05-04 16:14 | 53.33645 | -2.85717 | 94 ft | 5 kts | 355° |
| 2026-05-04 16:14 | 53.33654 | -2.85719 | 94 ft | 0 kts | 355° |